sensor_id;sensor_type;location;lat;lon;timestamp;temperature;humidity
12015;DHT22;6066;48.138;16.402;2023-07-08T00:01:18;16.50;99.90
12015;DHT22;6066;48.138;16.402;2023-07-08T00:03:45;16.50;99.90
12015;DHT22;6066;48.138;16.402;2023-07-08T00:06:13;16.40;99.90
12015;DHT22;6066;48.138;16.402;2023-07-08T00:08:42;16.30;99.90
12015;DHT22;6066;48.138;16.402;2023-07-08T00:11:09;16.20;99.90
12015;DHT22;6066;48.138;16.402;2023-07-08T00:13:38;16.20;99.90
12015;DHT22;6066;48.138;16.402;2023-07-08T00:16:07;16.10;99.90
12015;DHT22;6066;48.138;16.402;2023-07-08T00:18:34;16.10;99.90
12015;DHT22;6066;48.138;16.402;2023-07-08T00:21:01;16.10;99.90
12015;DHT22;6066;48.138;16.402;2023-07-08T00:23:28;16.10;99.90
12015;DHT22;6066;48.138;16.402;2023-07-08T00:25:55;16.10;99.90
12015;DHT22;6066;48.138;16.402;2023-07-08T00:28:21;16.00;99.90
12015;DHT22;6066;48.138;16.402;2023-07-08T00:30:49;16.00;99.90
12015;DHT22;6066;48.138;16.402;2023-07-08T00:33:18;16.00;99.90
12015;DHT22;6066;48.138;16.402;2023-07-08T00:35:45;16.00;99.90
12015;DHT22;6066;48.138;16.402;2023-07-08T00:38:13;15.90;99.90
12015;DHT22;6066;48.138;16.402;2023-07-08T00:40:48;15.90;99.90
12015;DHT22;6066;48.138;16.402;2023-07-08T00:43:15;15.80;99.90
12015;DHT22;6066;48.138;16.402;2023-07-08T00:45:44;15.90;99.90
12015;DHT22;6066;48.138;16.402;2023-07-08T00:48:18;15.90;99.90
12015;DHT22;6066;48.138;16.402;2023-07-08T00:50:45;15.90;99.90
12015;DHT22;6066;48.138;16.402;2023-07-08T00:53:22;15.90;99.90
12015;DHT22;6066;48.138;16.402;2023-07-08T00:55:49;15.80;99.90
12015;DHT22;6066;48.138;16.402;2023-07-08T00:58:16;15.80;99.90
12015;DHT22;6066;48.138;16.402;2023-07-08T01:00:43;15.80;99.90
12015;DHT22;6066;48.138;16.402;2023-07-08T01:03:10;15.80;99.90
12015;DHT22;6066;48.138;16.402;2023-07-08T01:05:38;15.70;99.90
12015;DHT22;6066;48.138;16.402;2023-07-08T01:08:05;15.70;99.90
12015;DHT22;6066;48.138;16.402;2023-07-08T01:10:32;15.70;99.90
12015;DHT22;6066;48.138;16.402;2023-07-08T01:13:00;15.60;99.90
12015;DHT22;6066;48.138;16.402;2023-07-08T01:15:30;15.60;99.90
12015;DHT22;6066;48.138;16.402;2023-07-08T01:17:58;15.50;99.90
12015;DHT22;6066;48.138;16.402;2023-07-08T01:20:25;15.50;99.90
12015;DHT22;6066;48.138;16.402;2023-07-08T01:22:53;15.50;99.90
12015;DHT22;6066;48.138;16.402;2023-07-08T01:25:19;15.50;99.90
12015;DHT22;6066;48.138;16.402;2023-07-08T01:27:48;15.50;99.90
12015;DHT22;6066;48.138;16.402;2023-07-08T01:30:15;15.50;99.90
12015;DHT22;6066;48.138;16.402;2023-07-08T01:32:44;15.50;99.90
12015;DHT22;6066;48.138;16.402;2023-07-08T01:35:11;15.50;99.90
12015;DHT22;6066;48.138;16.402;2023-07-08T01:37:39;15.50;99.90
12015;DHT22;6066;48.138;16.402;2023-07-08T01:40:15;15.50;99.90
12015;DHT22;6066;48.138;16.402;2023-07-08T01:42:42;15.40;99.90
12015;DHT22;6066;48.138;16.402;2023-07-08T01:45:10;15.40;99.90
12015;DHT22;6066;48.138;16.402;2023-07-08T01:47:37;15.40;99.90
12015;DHT22;6066;48.138;16.402;2023-07-08T01:50:04;15.40;99.90
12015;DHT22;6066;48.138;16.402;2023-07-08T01:52:30;15.40;99.90
12015;DHT22;6066;48.138;16.402;2023-07-08T01:54:57;15.40;99.90
12015;DHT22;6066;48.138;16.402;2023-07-08T01:57:25;15.40;99.90
12015;DHT22;6066;48.138;16.402;2023-07-08T01:59:52;15.40;99.90
12015;DHT22;6066;48.138;16.402;2023-07-08T02:02:18;15.40;99.90
12015;DHT22;6066;48.138;16.402;2023-07-08T02:04:45;15.30;99.90
12015;DHT22;6066;48.138;16.402;2023-07-08T02:07:12;15.30;99.90
12015;DHT22;6066;48.138;16.402;2023-07-08T02:09:38;15.20;99.90
12015;DHT22;6066;48.138;16.402;2023-07-08T02:12:05;15.20;99.90
12015;DHT22;6066;48.138;16.402;2023-07-08T02:14:33;15.20;99.90
12015;DHT22;6066;48.138;16.402;2023-07-08T02:17:00;15.20;99.90
12015;DHT22;6066;48.138;16.402;2023-07-08T02:19:31;15.10;99.90
12015;DHT22;6066;48.138;16.402;2023-07-08T02:21:57;15.10;99.90
12015;DHT22;6066;48.138;16.402;2023-07-08T02:24:24;15.00;99.90
12015;DHT22;6066;48.138;16.402;2023-07-08T02:26:51;14.90;99.90
12015;DHT22;6066;48.138;16.402;2023-07-08T02:29:17;14.90;99.90
12015;DHT22;6066;48.138;16.402;2023-07-08T02:31:45;14.90;99.90
12015;DHT22;6066;48.138;16.402;2023-07-08T02:34:12;14.80;99.90
12015;DHT22;6066;48.138;16.402;2023-07-08T02:36:39;14.80;99.90
12015;DHT22;6066;48.138;16.402;2023-07-08T02:39:06;14.80;99.90
12015;DHT22;6066;48.138;16.402;2023-07-08T02:41:32;14.80;99.90
12015;DHT22;6066;48.138;16.402;2023-07-08T02:43:59;14.80;99.90
12015;DHT22;6066;48.138;16.402;2023-07-08T02:46:26;14.80;99.90
12015;DHT22;6066;48.138;16.402;2023-07-08T02:48:54;14.70;99.90
12015;DHT22;6066;48.138;16.402;2023-07-08T02:51:21;14.70;99.90
12015;DHT22;6066;48.138;16.402;2023-07-08T02:53:47;14.70;99.90
12015;DHT22;6066;48.138;16.402;2023-07-08T02:56:14;14.60;99.90
12015;DHT22;6066;48.138;16.402;2023-07-08T02:58:41;14.60;99.90
12015;DHT22;6066;48.138;16.402;2023-07-08T03:01:08;14.60;99.90
12015;DHT22;6066;48.138;16.402;2023-07-08T03:03:35;14.60;99.90
12015;DHT22;6066;48.138;16.402;2023-07-08T03:06:04;14.60;99.90
12015;DHT22;6066;48.138;16.402;2023-07-08T03:08:31;14.60;99.90
12015;DHT22;6066;48.138;16.402;2023-07-08T03:10:58;14.70;99.90
12015;DHT22;6066;48.138;16.402;2023-07-08T03:13:26;14.70;99.90
12015;DHT22;6066;48.138;16.402;2023-07-08T03:15:53;14.70;99.90
12015;DHT22;6066;48.138;16.402;2023-07-08T03:18:20;14.70;99.90
12015;DHT22;6066;48.138;16.402;2023-07-08T03:20:48;14.60;99.90
12015;DHT22;6066;48.138;16.402;2023-07-08T03:23:17;14.60;99.90
12015;DHT22;6066;48.138;16.402;2023-07-08T03:25:43;14.50;99.90
12015;DHT22;6066;48.138;16.402;2023-07-08T03:28:10;14.50;99.90
12015;DHT22;6066;48.138;16.402;2023-07-08T03:30:40;14.40;99.90
12015;DHT22;6066;48.138;16.402;2023-07-08T03:33:07;14.40;99.90
12015;DHT22;6066;48.138;16.402;2023-07-08T03:35:33;14.50;99.90
12015;DHT22;6066;48.138;16.402;2023-07-08T03:38:00;14.50;99.90
12015;DHT22;6066;48.138;16.402;2023-07-08T03:40:28;14.50;99.90
12015;DHT22;6066;48.138;16.402;2023-07-08T03:42:55;14.40;99.90
12015;DHT22;6066;48.138;16.402;2023-07-08T03:45:22;14.40;99.90
12015;DHT22;6066;48.138;16.402;2023-07-08T03:47:49;14.40;99.90
12015;DHT22;6066;48.138;16.402;2023-07-08T03:50:16;14.30;99.90
12015;DHT22;6066;48.138;16.402;2023-07-08T03:52:44;14.30;99.90
12015;DHT22;6066;48.138;16.402;2023-07-08T03:55:11;14.30;99.90
12015;DHT22;6066;48.138;16.402;2023-07-08T03:57:39;14.40;99.90
12015;DHT22;6066;48.138;16.402;2023-07-08T04:00:07;14.40;99.90
12015;DHT22;6066;48.138;16.402;2023-07-08T04:02:35;14.40;99.90
12015;DHT22;6066;48.138;16.402;2023-07-08T04:05:02;14.50;99.90
12015;DHT22;6066;48.138;16.402;2023-07-08T04:07:28;14.60;99.90
12015;DHT22;6066;48.138;16.402;2023-07-08T04:09:55;14.60;99.90
12015;DHT22;6066;48.138;16.402;2023-07-08T04:12:22;14.60;99.90
12015;DHT22;6066;48.138;16.402;2023-07-08T04:14:50;14.70;99.90
12015;DHT22;6066;48.138;16.402;2023-07-08T04:17:17;14.70;99.90
12015;DHT22;6066;48.138;16.402;2023-07-08T04:19:44;14.80;99.90
12015;DHT22;6066;48.138;16.402;2023-07-08T04:22:11;14.90;99.90
12015;DHT22;6066;48.138;16.402;2023-07-08T04:24:38;15.10;99.90
12015;DHT22;6066;48.138;16.402;2023-07-08T04:27:05;15.10;99.90
12015;DHT22;6066;48.138;16.402;2023-07-08T04:29:32;15.20;99.90
12015;DHT22;6066;48.138;16.402;2023-07-08T04:32:01;15.20;99.90
12015;DHT22;6066;48.138;16.402;2023-07-08T04:34:28;15.30;99.90
12015;DHT22;6066;48.138;16.402;2023-07-08T04:36:55;15.30;99.90
12015;DHT22;6066;48.138;16.402;2023-07-08T04:39:22;15.40;99.90
12015;DHT22;6066;48.138;16.402;2023-07-08T04:41:48;15.50;99.90
12015;DHT22;6066;48.138;16.402;2023-07-08T04:44:15;15.60;99.90
12015;DHT22;6066;48.138;16.402;2023-07-08T04:46:44;15.70;99.90
12015;DHT22;6066;48.138;16.402;2023-07-08T04:49:13;15.70;99.90
12015;DHT22;6066;48.138;16.402;2023-07-08T04:51:39;15.80;99.90
12015;DHT22;6066;48.138;16.402;2023-07-08T04:54:06;15.80;99.90
12015;DHT22;6066;48.138;16.402;2023-07-08T04:56:35;15.90;99.90
12015;DHT22;6066;48.138;16.402;2023-07-08T04:59:02;16.00;99.90
12015;DHT22;6066;48.138;16.402;2023-07-08T05:01:29;16.10;99.90
12015;DHT22;6066;48.138;16.402;2023-07-08T05:03:56;16.20;99.90
12015;DHT22;6066;48.138;16.402;2023-07-08T05:06:24;16.30;99.90
12015;DHT22;6066;48.138;16.402;2023-07-08T05:08:50;16.40;99.90
12015;DHT22;6066;48.138;16.402;2023-07-08T05:11:17;16.40;99.90
12015;DHT22;6066;48.138;16.402;2023-07-08T05:13:44;16.50;99.90
12015;DHT22;6066;48.138;16.402;2023-07-08T05:16:10;16.60;99.90
12015;DHT22;6066;48.138;16.402;2023-07-08T05:18:37;16.60;99.90
12015;DHT22;6066;48.138;16.402;2023-07-08T05:21:04;16.70;99.90
12015;DHT22;6066;48.138;16.402;2023-07-08T05:23:32;16.70;99.90
12015;DHT22;6066;48.138;16.402;2023-07-08T05:25:59;16.80;99.90
12015;DHT22;6066;48.138;16.402;2023-07-08T05:28:26;16.90;99.90
12015;DHT22;6066;48.138;16.402;2023-07-08T05:30:53;16.90;99.90
12015;DHT22;6066;48.138;16.402;2023-07-08T05:33:20;17.00;99.90
12015;DHT22;6066;48.138;16.402;2023-07-08T05:35:47;17.10;99.90
12015;DHT22;6066;48.138;16.402;2023-07-08T05:38:14;17.20;99.90
12015;DHT22;6066;48.138;16.402;2023-07-08T05:40:42;17.30;99.90
12015;DHT22;6066;48.138;16.402;2023-07-08T05:43:09;17.40;99.90
12015;DHT22;6066;48.138;16.402;2023-07-08T05:45:35;17.50;99.90
12015;DHT22;6066;48.138;16.402;2023-07-08T05:48:02;17.50;99.90
12015;DHT22;6066;48.138;16.402;2023-07-08T05:50:29;17.60;99.90
12015;DHT22;6066;48.138;16.402;2023-07-08T05:52:55;17.70;99.90
12015;DHT22;6066;48.138;16.402;2023-07-08T05:55:22;17.80;99.90
12015;DHT22;6066;48.138;16.402;2023-07-08T05:57:50;18.00;99.90
12015;DHT22;6066;48.138;16.402;2023-07-08T06:00:17;18.10;99.90
12015;DHT22;6066;48.138;16.402;2023-07-08T06:02:44;18.20;99.90
12015;DHT22;6066;48.138;16.402;2023-07-08T06:05:10;18.30;99.90
12015;DHT22;6066;48.138;16.402;2023-07-08T06:07:37;18.40;99.90
12015;DHT22;6066;48.138;16.402;2023-07-08T06:10:04;18.50;99.90
12015;DHT22;6066;48.138;16.402;2023-07-08T06:12:31;18.60;99.90
12015;DHT22;6066;48.138;16.402;2023-07-08T06:14:59;18.70;99.90
12015;DHT22;6066;48.138;16.402;2023-07-08T06:17:26;18.80;99.90
12015;DHT22;6066;48.138;16.402;2023-07-08T06:19:53;18.90;99.90
12015;DHT22;6066;48.138;16.402;2023-07-08T06:22:19;19.00;99.90
12015;DHT22;6066;48.138;16.402;2023-07-08T06:24:46;19.10;99.90
12015;DHT22;6066;48.138;16.402;2023-07-08T06:27:13;19.30;99.90
12015;DHT22;6066;48.138;16.402;2023-07-08T06:29:40;19.40;99.90
12015;DHT22;6066;48.138;16.402;2023-07-08T06:32:08;19.50;99.90
12015;DHT22;6066;48.138;16.402;2023-07-08T06:34:35;19.60;99.90
12015;DHT22;6066;48.138;16.402;2023-07-08T06:37:02;19.70;99.90
12015;DHT22;6066;48.138;16.402;2023-07-08T06:39:28;19.70;99.90
12015;DHT22;6066;48.138;16.402;2023-07-08T06:41:55;19.90;99.90
12015;DHT22;6066;48.138;16.402;2023-07-08T06:44:22;20.00;99.90
12015;DHT22;6066;48.138;16.402;2023-07-08T06:46:49;20.10;99.90
12015;DHT22;6066;48.138;16.402;2023-07-08T06:49:17;20.10;99.90
12015;DHT22;6066;48.138;16.402;2023-07-08T06:51:44;20.20;99.90
12015;DHT22;6066;48.138;16.402;2023-07-08T06:54:11;20.40;99.90
12015;DHT22;6066;48.138;16.402;2023-07-08T06:56:38;20.40;99.90
12015;DHT22;6066;48.138;16.402;2023-07-08T06:59:05;20.50;99.90
12015;DHT22;6066;48.138;16.402;2023-07-08T07:01:31;20.70;99.90
12015;DHT22;6066;48.138;16.402;2023-07-08T07:03:58;20.70;99.90
12015;DHT22;6066;48.138;16.402;2023-07-08T07:06:26;20.80;99.90
12015;DHT22;6066;48.138;16.402;2023-07-08T07:08:53;20.80;99.90
12015;DHT22;6066;48.138;16.402;2023-07-08T07:11:20;20.90;99.90
12015;DHT22;6066;48.138;16.402;2023-07-08T07:13:47;20.90;99.90
12015;DHT22;6066;48.138;16.402;2023-07-08T07:16:13;21.00;99.90
12015;DHT22;6066;48.138;16.402;2023-07-08T07:18:40;21.10;99.90
12015;DHT22;6066;48.138;16.402;2023-07-08T07:21:07;21.20;99.90
12015;DHT22;6066;48.138;16.402;2023-07-08T07:23:35;21.20;99.90
12015;DHT22;6066;48.138;16.402;2023-07-08T07:26:01;21.30;99.90
12015;DHT22;6066;48.138;16.402;2023-07-08T07:28:29;21.40;99.90
12015;DHT22;6066;48.138;16.402;2023-07-08T07:30:57;21.50;99.90
12015;DHT22;6066;48.138;16.402;2023-07-08T07:33:24;21.60;99.90
12015;DHT22;6066;48.138;16.402;2023-07-08T07:35:51;21.70;99.90
12015;DHT22;6066;48.138;16.402;2023-07-08T07:38:17;21.90;99.90
12015;DHT22;6066;48.138;16.402;2023-07-08T07:40:45;22.00;99.90
12015;DHT22;6066;48.138;16.402;2023-07-08T07:43:12;22.10;99.90
12015;DHT22;6066;48.138;16.402;2023-07-08T07:45:39;22.10;99.90
12015;DHT22;6066;48.138;16.402;2023-07-08T07:48:05;22.20;99.90
12015;DHT22;6066;48.138;16.402;2023-07-08T07:50:33;22.40;99.90
12015;DHT22;6066;48.138;16.402;2023-07-08T07:53:00;22.50;99.90
12015;DHT22;6066;48.138;16.402;2023-07-08T07:55:26;22.60;99.90
12015;DHT22;6066;48.138;16.402;2023-07-08T07:57:54;22.70;99.90
12015;DHT22;6066;48.138;16.402;2023-07-08T08:00:21;22.80;99.90
12015;DHT22;6066;48.138;16.402;2023-07-08T08:02:48;22.90;99.90
12015;DHT22;6066;48.138;16.402;2023-07-08T08:05:15;23.00;99.90
12015;DHT22;6066;48.138;16.402;2023-07-08T08:07:41;23.10;99.90
12015;DHT22;6066;48.138;16.402;2023-07-08T08:10:08;23.20;99.90
12015;DHT22;6066;48.138;16.402;2023-07-08T08:12:35;23.20;99.90
12015;DHT22;6066;48.138;16.402;2023-07-08T08:15:03;23.30;99.90
12015;DHT22;6066;48.138;16.402;2023-07-08T08:17:30;23.40;99.90
12015;DHT22;6066;48.138;16.402;2023-07-08T08:19:57;23.50;99.90
12015;DHT22;6066;48.138;16.402;2023-07-08T08:22:23;23.50;99.90
12015;DHT22;6066;48.138;16.402;2023-07-08T08:24:50;23.60;99.90
12015;DHT22;6066;48.138;16.402;2023-07-08T08:27:17;23.70;99.90
12015;DHT22;6066;48.138;16.402;2023-07-08T08:29:43;23.80;99.90
12015;DHT22;6066;48.138;16.402;2023-07-08T08:32:11;23.90;99.90
12015;DHT22;6066;48.138;16.402;2023-07-08T08:34:39;24.00;99.90
12015;DHT22;6066;48.138;16.402;2023-07-08T08:37:06;24.10;99.90
12015;DHT22;6066;48.138;16.402;2023-07-08T08:39:32;24.20;99.90
12015;DHT22;6066;48.138;16.402;2023-07-08T08:41:59;24.20;99.90
12015;DHT22;6066;48.138;16.402;2023-07-08T08:44:29;24.30;99.90
12015;DHT22;6066;48.138;16.402;2023-07-08T08:47:00;24.40;99.90
12015;DHT22;6066;48.138;16.402;2023-07-08T08:49:32;24.50;99.90
12015;DHT22;6066;48.138;16.402;2023-07-08T08:52:01;24.70;99.90
12015;DHT22;6066;48.138;16.402;2023-07-08T08:54:28;24.70;99.90
12015;DHT22;6066;48.138;16.402;2023-07-08T08:56:58;24.90;99.90
12015;DHT22;6066;48.138;16.402;2023-07-08T08:59:28;25.00;99.90
12015;DHT22;6066;48.138;16.402;2023-07-08T09:01:56;25.10;99.90
12015;DHT22;6066;48.138;16.402;2023-07-08T09:04:24;25.20;99.90
12015;DHT22;6066;48.138;16.402;2023-07-08T09:06:56;25.30;99.90
12015;DHT22;6066;48.138;16.402;2023-07-08T09:09:30;25.40;99.90
12015;DHT22;6066;48.138;16.402;2023-07-08T09:12:00;25.50;99.90
12015;DHT22;6066;48.138;16.402;2023-07-08T09:14:30;25.60;99.90
12015;DHT22;6066;48.138;16.402;2023-07-08T09:16:58;25.60;99.90
12015;DHT22;6066;48.138;16.402;2023-07-08T09:19:32;25.70;99.90
12015;DHT22;6066;48.138;16.402;2023-07-08T09:22:01;25.90;99.90
12015;DHT22;6066;48.138;16.402;2023-07-08T09:24:31;25.90;99.90
12015;DHT22;6066;48.138;16.402;2023-07-08T09:26:59;26.10;99.90
12015;DHT22;6066;48.138;16.402;2023-07-08T09:29:27;26.10;99.90
12015;DHT22;6066;48.138;16.402;2023-07-08T09:31:53;26.10;99.90
12015;DHT22;6066;48.138;16.402;2023-07-08T09:34:21;26.20;99.90
12015;DHT22;6066;48.138;16.402;2023-07-08T09:36:50;26.30;99.90
12015;DHT22;6066;48.138;16.402;2023-07-08T09:39:18;26.40;99.90
12015;DHT22;6066;48.138;16.402;2023-07-08T09:41:46;26.50;99.90
12015;DHT22;6066;48.138;16.402;2023-07-08T09:44:14;26.60;99.90
12015;DHT22;6066;48.138;16.402;2023-07-08T09:46:41;26.70;99.90
12015;DHT22;6066;48.138;16.402;2023-07-08T09:49:15;26.80;99.90
12015;DHT22;6066;48.138;16.402;2023-07-08T09:51:43;26.80;99.90
12015;DHT22;6066;48.138;16.402;2023-07-08T09:54:09;26.90;99.90
12015;DHT22;6066;48.138;16.402;2023-07-08T09:56:40;26.80;99.90
12015;DHT22;6066;48.138;16.402;2023-07-08T09:59:09;26.90;99.90
12015;DHT22;6066;48.138;16.402;2023-07-08T10:01:38;26.90;99.90
12015;DHT22;6066;48.138;16.402;2023-07-08T10:04:06;27.00;99.90
12015;DHT22;6066;48.138;16.402;2023-07-08T10:06:33;27.10;99.90
12015;DHT22;6066;48.138;16.402;2023-07-08T10:09:01;27.10;99.90
12015;DHT22;6066;48.138;16.402;2023-07-08T10:11:29;27.10;99.90
12015;DHT22;6066;48.138;16.402;2023-07-08T10:13:59;27.10;99.90
12015;DHT22;6066;48.138;16.402;2023-07-08T10:16:28;27.10;99.90
12015;DHT22;6066;48.138;16.402;2023-07-08T10:18:55;27.20;99.90
12015;DHT22;6066;48.138;16.402;2023-07-08T10:21:26;27.10;99.90
12015;DHT22;6066;48.138;16.402;2023-07-08T10:23:56;27.20;99.90
12015;DHT22;6066;48.138;16.402;2023-07-08T10:26:26;27.30;99.90
12015;DHT22;6066;48.138;16.402;2023-07-08T10:28:56;27.40;99.90
12015;DHT22;6066;48.138;16.402;2023-07-08T10:31:27;27.50;99.90
12015;DHT22;6066;48.138;16.402;2023-07-08T10:34:03;27.50;99.90
12015;DHT22;6066;48.138;16.402;2023-07-08T10:36:38;27.50;99.90
12015;DHT22;6066;48.138;16.402;2023-07-08T10:39:20;27.60;99.90
12015;DHT22;6066;48.138;16.402;2023-07-08T10:41:53;27.60;99.90
12015;DHT22;6066;48.138;16.402;2023-07-08T10:44:23;27.60;99.90
12015;DHT22;6066;48.138;16.402;2023-07-08T10:46:56;27.60;99.90
12015;DHT22;6066;48.138;16.402;2023-07-08T10:49:32;27.60;99.90
12015;DHT22;6066;48.138;16.402;2023-07-08T10:52:06;27.60;99.90
12015;DHT22;6066;48.138;16.402;2023-07-08T10:54:43;27.80;99.90
12015;DHT22;6066;48.138;16.402;2023-07-08T10:57:28;27.80;99.90
12015;DHT22;6066;48.138;16.402;2023-07-08T10:59:59;27.80;99.90
12015;DHT22;6066;48.138;16.402;2023-07-08T11:02:36;27.80;99.90
12015;DHT22;6066;48.138;16.402;2023-07-08T11:05:10;27.70;99.90
12015;DHT22;6066;48.138;16.402;2023-07-08T11:07:40;27.80;99.90
12015;DHT22;6066;48.138;16.402;2023-07-08T11:10:07;27.80;99.90
12015;DHT22;6066;48.138;16.402;2023-07-08T11:12:38;27.80;99.90
12015;DHT22;6066;48.138;16.402;2023-07-08T11:15:08;27.80;99.90
12015;DHT22;6066;48.138;16.402;2023-07-08T11:17:40;27.80;99.90
12015;DHT22;6066;48.138;16.402;2023-07-08T11:20:13;27.80;99.90
12015;DHT22;6066;48.138;16.402;2023-07-08T11:22:45;27.90;99.90
12015;DHT22;6066;48.138;16.402;2023-07-08T11:25:16;27.90;99.90
12015;DHT22;6066;48.138;16.402;2023-07-08T11:27:44;27.90;99.90
12015;DHT22;6066;48.138;16.402;2023-07-08T11:30:12;27.90;99.90
12015;DHT22;6066;48.138;16.402;2023-07-08T11:32:41;27.80;99.90
12015;DHT22;6066;48.138;16.402;2023-07-08T11:35:15;27.90;99.90
12015;DHT22;6066;48.138;16.402;2023-07-08T11:37:44;27.90;99.90
12015;DHT22;6066;48.138;16.402;2023-07-08T11:40:17;27.90;99.90
12015;DHT22;6066;48.138;16.402;2023-07-08T11:42:46;28.00;99.90
12015;DHT22;6066;48.138;16.402;2023-07-08T11:45:15;28.00;99.90
12015;DHT22;6066;48.138;16.402;2023-07-08T11:47:49;28.10;99.90
12015;DHT22;6066;48.138;16.402;2023-07-08T11:50:19;28.20;99.90
12015;DHT22;6066;48.138;16.402;2023-07-08T11:52:50;28.30;99.90
12015;DHT22;6066;48.138;16.402;2023-07-08T11:55:20;28.30;99.90
12015;DHT22;6066;48.138;16.402;2023-07-08T11:57:47;28.30;99.90
12015;DHT22;6066;48.138;16.402;2023-07-08T12:00:23;28.30;99.90
12015;DHT22;6066;48.138;16.402;2023-07-08T12:02:52;28.20;99.90
12015;DHT22;6066;48.138;16.402;2023-07-08T12:05:28;28.20;99.90
12015;DHT22;6066;48.138;16.402;2023-07-08T12:07:55;28.30;99.90
12015;DHT22;6066;48.138;16.402;2023-07-08T12:10:26;28.40;99.90
12015;DHT22;6066;48.138;16.402;2023-07-08T12:12:53;28.50;99.90
12015;DHT22;6066;48.138;16.402;2023-07-08T12:15:21;28.60;99.90
12015;DHT22;6066;48.138;16.402;2023-07-08T12:17:49;28.60;99.90
12015;DHT22;6066;48.138;16.402;2023-07-08T12:20:19;28.60;99.90
12015;DHT22;6066;48.138;16.402;2023-07-08T12:22:47;28.70;99.90
12015;DHT22;6066;48.138;16.402;2023-07-08T12:25:14;28.70;99.90
12015;DHT22;6066;48.138;16.402;2023-07-08T12:27:42;28.70;99.90
12015;DHT22;6066;48.138;16.402;2023-07-08T12:30:09;28.80;99.90
12015;DHT22;6066;48.138;16.402;2023-07-08T12:32:36;28.80;99.90
12015;DHT22;6066;48.138;16.402;2023-07-08T12:35:03;28.70;99.90
12015;DHT22;6066;48.138;16.402;2023-07-08T12:37:32;28.70;99.90
12015;DHT22;6066;48.138;16.402;2023-07-08T12:39:59;28.80;99.90
12015;DHT22;6066;48.138;16.402;2023-07-08T12:42:30;28.80;99.90
12015;DHT22;6066;48.138;16.402;2023-07-08T12:44:56;28.90;99.90
12015;DHT22;6066;48.138;16.402;2023-07-08T12:47:23;28.90;99.90
12015;DHT22;6066;48.138;16.402;2023-07-08T12:49:50;28.90;99.90
12015;DHT22;6066;48.138;16.402;2023-07-08T12:52:19;29.00;99.90
12015;DHT22;6066;48.138;16.402;2023-07-08T12:54:47;29.00;99.90
12015;DHT22;6066;48.138;16.402;2023-07-08T12:57:13;29.00;99.90
12015;DHT22;6066;48.138;16.402;2023-07-08T12:59:41;29.00;99.90
12015;DHT22;6066;48.138;16.402;2023-07-08T13:02:09;29.00;99.90
12015;DHT22;6066;48.138;16.402;2023-07-08T13:04:40;29.00;99.90
12015;DHT22;6066;48.138;16.402;2023-07-08T13:07:08;29.30;99.90
12015;DHT22;6066;48.138;16.402;2023-07-08T13:09:40;29.40;99.90
12015;DHT22;6066;48.138;16.402;2023-07-08T13:12:12;29.40;99.90
12015;DHT22;6066;48.138;16.402;2023-07-08T13:14:40;29.20;99.90
12015;DHT22;6066;48.138;16.402;2023-07-08T13:17:10;28.90;99.90
12015;DHT22;6066;48.138;16.402;2023-07-08T13:19:37;28.60;99.90
12015;DHT22;6066;48.138;16.402;2023-07-08T13:22:04;28.40;99.90
12015;DHT22;6066;48.138;16.402;2023-07-08T13:24:31;28.50;99.90
12015;DHT22;6066;48.138;16.402;2023-07-08T13:26:59;28.60;99.90
12015;DHT22;6066;48.138;16.402;2023-07-08T13:29:33;28.70;99.90
12015;DHT22;6066;48.138;16.402;2023-07-08T13:32:04;28.80;99.90
12015;DHT22;6066;48.138;16.402;2023-07-08T13:34:32;28.90;99.90
12015;DHT22;6066;48.138;16.402;2023-07-08T13:36:59;29.00;99.90
12015;DHT22;6066;48.138;16.402;2023-07-08T13:39:27;28.90;99.90
12015;DHT22;6066;48.138;16.402;2023-07-08T13:41:54;28.80;99.90
12015;DHT22;6066;48.138;16.402;2023-07-08T13:44:21;28.70;99.90
12015;DHT22;6066;48.138;16.402;2023-07-08T13:46:52;28.60;99.90
12015;DHT22;6066;48.138;16.402;2023-07-08T13:49:20;28.70;99.90
12015;DHT22;6066;48.138;16.402;2023-07-08T13:51:47;28.80;99.90
12015;DHT22;6066;48.138;16.402;2023-07-08T13:54:15;28.70;99.90
12015;DHT22;6066;48.138;16.402;2023-07-08T13:56:45;28.70;99.90
12015;DHT22;6066;48.138;16.402;2023-07-08T13:59:16;28.80;99.90
12015;DHT22;6066;48.138;16.402;2023-07-08T14:01:44;28.90;99.90
12015;DHT22;6066;48.138;16.402;2023-07-08T14:04:12;29.00;99.90
12015;DHT22;6066;48.138;16.402;2023-07-08T14:06:39;29.00;99.90
12015;DHT22;6066;48.138;16.402;2023-07-08T14:09:09;28.90;99.90
12015;DHT22;6066;48.138;16.402;2023-07-08T14:11:36;28.90;99.90
12015;DHT22;6066;48.138;16.402;2023-07-08T14:14:03;28.80;99.90
12015;DHT22;6066;48.138;16.402;2023-07-08T14:16:31;28.60;99.90
12015;DHT22;6066;48.138;16.402;2023-07-08T14:18:59;28.50;99.90
12015;DHT22;6066;48.138;16.402;2023-07-08T14:21:30;28.40;99.90
12015;DHT22;6066;48.138;16.402;2023-07-08T14:23:57;28.40;99.90
12015;DHT22;6066;48.138;16.402;2023-07-08T14:26:23;28.50;99.90
12015;DHT22;6066;48.138;16.402;2023-07-08T14:28:50;28.60;99.90
12015;DHT22;6066;48.138;16.402;2023-07-08T14:31:19;28.70;99.90
12015;DHT22;6066;48.138;16.402;2023-07-08T14:33:47;28.70;99.90
12015;DHT22;6066;48.138;16.402;2023-07-08T14:36:14;28.80;99.90
12015;DHT22;6066;48.138;16.402;2023-07-08T14:38:42;28.80;99.90
12015;DHT22;6066;48.138;16.402;2023-07-08T14:41:08;28.80;99.90
12015;DHT22;6066;48.138;16.402;2023-07-08T14:43:35;28.70;99.90
12015;DHT22;6066;48.138;16.402;2023-07-08T14:46:04;28.70;99.90
12015;DHT22;6066;48.138;16.402;2023-07-08T14:48:32;28.70;99.90
12015;DHT22;6066;48.138;16.402;2023-07-08T14:50:59;28.60;99.90
12015;DHT22;6066;48.138;16.402;2023-07-08T14:53:25;28.60;99.90
12015;DHT22;6066;48.138;16.402;2023-07-08T14:55:55;28.50;99.90
12015;DHT22;6066;48.138;16.402;2023-07-08T14:58:23;28.30;99.90
12015;DHT22;6066;48.138;16.402;2023-07-08T15:00:51;28.10;99.90
12015;DHT22;6066;48.138;16.402;2023-07-08T15:03:18;27.90;99.90
12015;DHT22;6066;48.138;16.402;2023-07-08T15:05:45;27.80;99.90
12015;DHT22;6066;48.138;16.402;2023-07-08T15:08:11;27.80;99.90
12015;DHT22;6066;48.138;16.402;2023-07-08T15:10:38;27.90;99.90
12015;DHT22;6066;48.138;16.402;2023-07-08T15:13:09;27.90;99.90
12015;DHT22;6066;48.138;16.402;2023-07-08T15:15:36;27.90;99.90
12015;DHT22;6066;48.138;16.402;2023-07-08T15:18:06;27.90;99.90
12015;DHT22;6066;48.138;16.402;2023-07-08T15:20:36;27.90;99.90
12015;DHT22;6066;48.138;16.402;2023-07-08T15:23:03;27.80;99.90
12015;DHT22;6066;48.138;16.402;2023-07-08T15:25:30;27.60;99.90
12015;DHT22;6066;48.138;16.402;2023-07-08T15:27:58;27.50;99.90
12015;DHT22;6066;48.138;16.402;2023-07-08T15:30:27;27.40;99.90
12015;DHT22;6066;48.138;16.402;2023-07-08T15:32:54;27.40;99.90
12015;DHT22;6066;48.138;16.402;2023-07-08T15:35:21;27.30;99.90